Airfield :
LOGIN :

Register | Disclaimer

   EN    FR    IT 

 










Legend :    VFR   Marginal VFR   IFR   Intensive IFR   Very Intensive IFR
Visi :
Ceiling :
>= 8 km
>= 3000ft
5 to 8 km
1000 to 3000 ft
1500m to 5 km
500 to 1000 ft
800 to 1500m
200 to 500 ft
< 800m
< 200 ft
Symbols :   Thunderstorms  Fog  Heavy snow  Heavy precipitations  Wind > 20 kt
SIGMETs :     Misc.  Thunderstorms  Icing  Turbulence  Mountain Waves  Volcanic Ashes






- Airport Elevation : 909 ft
- IATA code : KSF


EDVK - Kassel Calden

CURRENT METAR :
  • 220850Z 23006KT 200V280 9999 SCT030 18/12 Q1013

EXPIRED METARs :
  • 220820Z 25009KT 210V280 9999 FEW029 18/12 Q1013
  • 220750Z 25011KT 220V280 9999 FEW022 17/11 Q1013
  • 220720Z 24010KT 200V280 9999 FEW015 16/12 Q1013
  • 220650Z 21007KT 190V260 9999 FEW011 15/12 Q1013
  • 220620Z 21009KT 9999 FEW011 14/11 Q1013
  • 220550Z 20005KT 160V230 CAVOK 14/11 Q1012
  • 220520Z 21007KT 180V240 9999 FEW030 13/10 Q1012
  • 220450Z AUTO 21007KT 9999 // SCT030/// BKN130/// 13/10 Q1012
  • 220420Z AUTO 23005KT 190V280 9999 // FEW030/// SCT080/// 13/11 Q1012

TAF TAF EDVK
Valid from the 22 at 09:00 until the 22 at 18:00 UTC


220800Z 2209/2218 25010KT 9999 SCT035



MET'MAP, your aeronautical weather chart ! - Copyright ORBIFLY December 2007 - Disclaimer

ORBIFLY MET'MAP TEAM :

Programming & Development : Alexandra Zaïnal
Original concept : Baudouin d'Aumeries
Technical & hardware support : Manuel Goepfert
Assistance : Marc-Olivier Méhu




SOURCES & CREDITS :

   NOAA